createdAt,value
2022-08-01T00:00:09.377Z,20.43
2022-08-01T00:02:39.130Z,20.45
2022-08-01T00:05:06.991Z,20.46
2022-08-01T00:07:37.499Z,20.51
2022-08-01T00:10:05.620Z,20.56
2022-08-01T00:12:32.313Z,20.58
2022-08-01T00:14:58.927Z,20.67
2022-08-01T00:17:25.525Z,20.71
2022-08-01T00:19:52.125Z,20.72
2022-08-01T00:22:18.774Z,20.74
2022-08-01T00:24:45.371Z,20.74
2022-08-01T00:27:11.966Z,20.72
2022-08-01T00:30:09.801Z,20.77
2022-08-01T00:32:25.449Z,20.75
2022-08-01T00:34:52.230Z,20.72
2022-08-01T00:37:18.885Z,20.70
2022-08-01T00:39:45.636Z,20.68
2022-08-01T00:42:13.316Z,20.67
2022-08-01T00:44:41.163Z,20.65
2022-08-01T00:47:08.486Z,20.60
2022-08-01T00:49:35.835Z,20.61
2022-08-01T00:52:05.852Z,20.64
2022-08-01T00:54:33.452Z,20.63
2022-08-01T00:57:00.701Z,20.63
2022-08-01T00:59:28.175Z,20.59
2022-08-01T01:01:55.461Z,20.60
2022-08-01T01:04:23.095Z,20.63
2022-08-01T01:07:00.999Z,20.61
2022-08-01T01:09:43.786Z,20.64
2022-08-01T01:12:27.164Z,20.59
2022-08-01T01:15:09.547Z,20.56
2022-08-01T01:17:52.135Z,20.55
2022-08-01T01:20:21.363Z,20.53
2022-08-01T01:22:53.833Z,20.50
2022-08-01T01:25:40.873Z,20.47
2022-08-01T01:28:34.641Z,20.43
2022-08-01T01:31:03.296Z,20.37
2022-08-01T01:33:33.115Z,20.42
2022-08-01T01:36:07.510Z,20.36
2022-08-01T01:38:45.327Z,20.38
2022-08-01T01:41:13.847Z,20.39
2022-08-01T01:43:41.607Z,20.39
2022-08-01T01:46:11.771Z,20.38
2022-08-01T01:48:40.134Z,20.35
2022-08-01T01:51:07.925Z,20.35
2022-08-01T01:53:36.725Z,20.35
2022-08-01T01:56:04.649Z,20.35
2022-08-01T01:58:34.122Z,20.35
2022-08-01T02:01:03.544Z,20.33
2022-08-01T02:03:32.703Z,20.34
2022-08-01T02:06:01.730Z,20.32
2022-08-01T02:08:31.849Z,20.34
2022-08-01T02:11:19.445Z,20.35
2022-08-01T02:13:53.514Z,20.36
2022-08-01T02:16:23.843Z,20.37
2022-08-01T02:18:50.730Z,20.36
2022-08-01T02:21:47.045Z,20.37
2022-08-01T02:24:32.485Z,20.33
2022-08-01T02:27:05.881Z,20.34
2022-08-01T02:29:40.867Z,20.33
2022-08-01T02:32:10.710Z,20.31
2022-08-01T02:34:37.339Z,20.32
2022-08-01T02:37:04.579Z,20.31
2022-08-01T02:39:32.953Z,20.25
2022-08-01T02:42:04.563Z,20.27
2022-08-01T02:44:36.439Z,20.26
2022-08-01T02:47:04.341Z,20.23
2022-08-01T02:49:36.371Z,20.19
2022-08-01T02:52:08.324Z,20.19
2022-08-01T02:54:37.792Z,20.18
2022-08-01T02:57:06.985Z,20.19
2022-08-01T02:59:36.189Z,20.20
2022-08-01T03:02:06.683Z,20.19
2022-08-01T03:04:37.803Z,20.18
2022-08-01T03:07:08.779Z,20.14
2022-08-01T03:09:39.135Z,20.18
2022-08-01T03:12:10.410Z,20.15
2022-08-01T03:14:40.932Z,20.13
2022-08-01T03:17:09.640Z,20.11
2022-08-01T03:19:39.249Z,20.10
2022-08-01T03:22:12.253Z,20.06
2022-08-01T03:24:41.278Z,20.07
2022-08-01T03:27:09.675Z,20.11
2022-08-01T03:29:40.025Z,20.11
2022-08-01T03:32:08.205Z,19.98
2022-08-01T03:34:35.110Z,20.06
2022-08-01T03:37:13.421Z,20.04
2022-08-01T03:39:55.282Z,20.05
2022-08-01T03:42:27.328Z,20.03
2022-08-01T03:44:56.639Z,19.96
2022-08-01T03:47:30.646Z,20.00
2022-08-01T03:49:59.399Z,20.00
2022-08-01T03:52:28.617Z,19.99
2022-08-01T03:54:57.244Z,19.99
2022-08-01T03:57:35.708Z,20.00
2022-08-01T04:00:10.025Z,20.00
2022-08-01T04:02:40.172Z,19.99
2022-08-01T04:05:08.218Z,19.88
2022-08-01T04:07:40.171Z,19.99
2022-08-01T04:10:07.733Z,20.00
2022-08-01T04:12:35.732Z,19.98
2022-08-01T04:15:02.438Z,20.03
2022-08-01T04:17:29.092Z,20.05
2022-08-01T04:19:55.664Z,20.06
2022-08-01T04:22:22.308Z,20.07
2022-08-01T04:24:56.438Z,20.08
2022-08-01T04:27:50.920Z,20.08
2022-08-01T04:30:21.692Z,20.07
2022-08-01T04:32:50.874Z,20.04
2022-08-01T04:35:36.016Z,20.07
2022-08-01T04:38:10.296Z,20.02
2022-08-01T04:40:38.103Z,20.01
2022-08-01T04:43:04.829Z,19.99
2022-08-01T04:45:33.614Z,19.89
2022-08-01T04:48:00.976Z,19.97
2022-08-01T04:50:28.365Z,19.95
2022-08-01T04:52:55.535Z,19.96
2022-08-01T04:55:22.170Z,19.99
2022-08-01T04:57:49.168Z,19.99
2022-08-01T05:00:17.568Z,19.98
2022-08-01T05:02:44.294Z,19.98
2022-08-01T05:05:11.509Z,19.98
2022-08-01T05:07:44.158Z,19.95
2022-08-01T05:10:12.094Z,19.93
2022-08-01T05:12:38.728Z,19.96
2022-08-01T05:15:11.827Z,19.95
2022-08-01T05:17:43.311Z,19.94
2022-08-01T05:20:11.272Z,20.00
2022-08-01T05:22:38.230Z,19.99
2022-08-01T05:25:06.006Z,20.03
2022-08-01T05:27:33.582Z,20.08
2022-08-01T05:30:00.573Z,20.10
2022-08-01T05:32:28.219Z,20.15
2022-08-01T05:34:54.884Z,20.20
2022-08-01T05:37:21.533Z,20.30
2022-08-01T05:39:48.117Z,20.42
2022-08-01T05:42:14.721Z,20.56
2022-08-01T05:44:41.342Z,20.70
2022-08-01T05:47:07.966Z,20.80
2022-08-01T05:49:34.731Z,20.93
2022-08-01T05:52:03.062Z,20.88
2022-08-01T05:54:30.229Z,21.09
2022-08-01T05:57:00.528Z,21.14
2022-08-01T05:59:27.410Z,21.17
2022-08-01T06:01:54.089Z,21.24
2022-08-01T06:04:20.817Z,21.32
2022-08-01T06:06:47.433Z,21.37
2022-08-01T06:09:14.062Z,21.38
2022-08-01T06:11:40.753Z,21.44
2022-08-01T06:14:07.381Z,21.42
2022-08-01T06:16:34.113Z,21.41
2022-08-01T06:19:00.793Z,21.44
2022-08-01T06:21:27.348Z,21.44
2022-08-01T06:23:53.984Z,21.43
2022-08-01T06:26:20.851Z,21.47
2022-08-01T06:28:47.433Z,21.52
2022-08-01T06:31:14.839Z,21.48
2022-08-01T06:33:41.428Z,21.58
2022-08-01T06:36:08.047Z,21.60
2022-08-01T06:38:34.643Z,21.65
2022-08-01T06:41:01.217Z,21.68
2022-08-01T06:43:27.801Z,21.71
2022-08-01T06:45:54.363Z,21.77
2022-08-01T06:48:20.961Z,21.87
2022-08-01T06:50:47.555Z,21.89
2022-08-01T06:53:14.195Z,21.92
2022-08-01T06:55:40.831Z,22.01
2022-08-01T06:58:07.458Z,22.10
2022-08-01T07:00:34.550Z,22.13
2022-08-01T07:03:01.277Z,22.17
2022-08-01T07:05:28.267Z,22.24
2022-08-01T07:07:55.188Z,22.38
2022-08-01T07:10:21.856Z,22.45
2022-08-01T07:12:48.441Z,22.53
2022-08-01T07:15:15.501Z,22.58
2022-08-01T07:17:43.587Z,22.59
2022-08-01T07:20:13.939Z,22.64
2022-08-01T07:22:43.569Z,22.66
2022-08-01T07:25:14.137Z,22.75
2022-08-01T07:27:40.844Z,22.86
2022-08-01T07:30:08.041Z,22.96
2022-08-01T07:32:35.870Z,23.08
2022-08-01T07:35:03.741Z,23.18
2022-08-01T07:37:48.284Z,23.19
2022-08-01T07:40:18.820Z,23.17
2022-08-01T07:42:46.116Z,23.24
2022-08-01T07:45:13.934Z,23.23
2022-08-01T07:47:40.564Z,23.18
2022-08-01T07:50:08.224Z,23.25
2022-08-01T07:52:35.121Z,23.29
2022-08-01T07:55:01.717Z,23.28
2022-08-01T07:57:28.342Z,23.25
2022-08-01T07:59:55.049Z,23.27
2022-08-01T08:02:21.872Z,23.21
2022-08-01T08:04:49.249Z,23.31
2022-08-01T08:07:16.788Z,23.34
2022-08-01T08:09:43.452Z,23.44
2022-08-01T08:12:10.694Z,23.63
2022-08-01T08:14:37.564Z,23.78
2022-08-01T08:17:04.913Z,23.81
2022-08-01T08:19:38.033Z,23.77
2022-08-01T08:22:06.815Z,23.77
2022-08-01T08:24:33.795Z,23.85
2022-08-01T08:27:01.928Z,23.97
2022-08-01T08:29:30.845Z,24.06
2022-08-01T08:31:58.713Z,24.16
2022-08-01T08:34:26.825Z,24.29
2022-08-01T08:36:55.778Z,24.24
2022-08-01T08:39:22.980Z,24.30
2022-08-01T08:41:50.328Z,24.33
2022-08-01T08:44:18.327Z,24.31
2022-08-01T08:46:47.958Z,24.26
2022-08-01T08:49:19.516Z,24.26
2022-08-01T08:51:49.217Z,24.38
2022-08-01T08:54:17.427Z,24.47
2022-08-01T08:56:46.665Z,24.53
2022-08-01T08:59:14.863Z,24.48
2022-08-01T09:01:42.845Z,24.46
2022-08-01T09:04:10.806Z,24.65
2022-08-01T09:06:37.567Z,24.88
2022-08-01T09:09:05.131Z,24.97
2022-08-01T09:11:32.060Z,24.93
2022-08-01T09:14:07.519Z,24.91
2022-08-01T09:16:35.562Z,24.86
2022-08-01T09:19:40.500Z,24.72
2022-08-01T09:22:05.832Z,24.74
2022-08-01T09:24:33.348Z,24.94
2022-08-01T09:27:03.345Z,24.86
2022-08-01T09:29:38.143Z,25.02
2022-08-01T09:32:08.108Z,25.25
2022-08-01T09:34:35.145Z,25.53
2022-08-01T09:37:03.919Z,25.54
2022-08-01T09:39:43.795Z,25.55
2022-08-01T09:42:29.131Z,25.50
2022-08-01T09:44:56.549Z,25.56
2022-08-01T09:47:38.883Z,25.76
2022-08-01T09:50:10.726Z,25.84
2022-08-01T09:52:38.204Z,25.95
2022-08-01T09:55:08.497Z,25.92
2022-08-01T09:57:35.290Z,26.03
2022-08-01T10:00:04.830Z,25.78
2022-08-01T10:02:43.365Z,25.75
2022-08-01T10:05:19.018Z,25.85
2022-08-01T10:07:59.578Z,25.90
2022-08-01T10:10:28.942Z,26.07
2022-08-01T10:12:59.751Z,26.01
2022-08-01T10:15:36.409Z,25.79
2022-08-01T10:18:16.199Z,25.87
2022-08-01T10:20:48.538Z,26.09
2022-08-01T10:23:16.446Z,26.29
2022-08-01T10:25:47.057Z,26.53
2022-08-01T10:28:18.163Z,26.64
2022-08-01T10:30:49.395Z,26.74
2022-08-01T10:33:49.660Z,26.73
2022-08-01T10:36:03.956Z,26.66
2022-08-01T10:38:37.198Z,26.58
2022-08-01T10:41:06.596Z,26.67
2022-08-01T10:43:35.313Z,26.73
2022-08-01T10:46:04.534Z,26.79
2022-08-01T10:48:57.979Z,26.90
2022-08-01T10:51:51.522Z,27.14
2022-08-01T10:54:14.418Z,27.37
2022-08-01T10:56:46.480Z,27.58
2022-08-01T10:59:29.193Z,27.70
2022-08-01T11:02:09.195Z,27.87
2022-08-01T11:04:41.599Z,27.69
2022-08-01T11:07:25.839Z,27.57
2022-08-01T11:10:24.788Z,27.38
2022-08-01T11:12:51.476Z,27.08
2022-08-01T11:15:29.178Z,26.81
2022-08-01T11:18:00.659Z,26.51
2022-08-01T11:20:31.410Z,26.32
2022-08-01T11:23:02.991Z,26.23
2022-08-01T11:25:58.437Z,26.58
2022-08-01T11:28:35.572Z,27.10
2022-08-01T11:31:07.601Z,27.14
2022-08-01T11:33:40.466Z,27.26
2022-08-01T11:36:12.930Z,27.48
2022-08-01T11:39:13.608Z,27.75
2022-08-01T11:41:41.570Z,27.97
2022-08-01T11:44:15.753Z,27.93
2022-08-01T11:46:53.440Z,27.94
2022-08-01T11:49:29.318Z,28.30
2022-08-01T11:52:04.910Z,28.83
2022-08-01T11:54:39.525Z,29.13
2022-08-01T11:57:12.162Z,28.93
2022-08-01T12:00:02.722Z,28.64
2022-08-01T12:02:38.928Z,28.74
2022-08-01T12:05:22.612Z,28.65
2022-08-01T12:07:52.838Z,28.58
2022-08-01T12:10:22.227Z,28.31
2022-08-01T12:12:57.812Z,28.27
2022-08-01T12:15:29.869Z,28.00
2022-08-01T12:17:59.722Z,27.72
2022-08-01T12:20:30.969Z,27.53
2022-08-01T12:23:00.988Z,27.36
2022-08-01T12:25:27.738Z,27.19
2022-08-01T12:27:56.465Z,27.05
2022-08-01T12:30:26.145Z,27.01
2022-08-01T12:32:54.416Z,27.02
2022-08-01T12:35:24.265Z,27.03
2022-08-01T12:38:02.164Z,27.14
2022-08-01T12:40:45.350Z,27.28
2022-08-01T12:43:26.816Z,27.60
2022-08-01T12:45:57.763Z,27.70
2022-08-01T12:48:25.984Z,27.62
2022-08-01T12:50:53.869Z,27.48
2022-08-01T12:53:21.772Z,27.31
2022-08-01T12:55:58.049Z,27.05
2022-08-01T12:58:35.986Z,26.91
2022-08-01T13:01:08.717Z,26.88
2022-08-01T13:03:35.975Z,26.82
2022-08-01T13:06:11.807Z,26.78
2022-08-01T13:08:39.485Z,26.84
2022-08-01T13:11:15.049Z,26.74
2022-08-01T13:13:50.288Z,26.73
2022-08-01T13:16:30.832Z,26.63
2022-08-01T13:19:05.851Z,26.57
2022-08-01T13:21:52.892Z,26.50
2022-08-01T13:24:28.210Z,26.43
2022-08-01T13:27:01.271Z,26.32
2022-08-01T13:29:41.017Z,26.08
2022-08-01T13:32:28.735Z,26.01
2022-08-01T13:35:06.098Z,25.91
2022-08-01T13:37:33.002Z,25.87
2022-08-01T13:39:59.927Z,25.84
2022-08-01T13:42:26.508Z,25.75
2022-08-01T13:44:53.238Z,25.77
2022-08-01T13:47:19.874Z,25.82
2022-08-01T13:50:01.745Z,25.83
2022-08-01T13:52:29.253Z,25.81
2022-08-01T13:54:55.913Z,25.79
2022-08-01T13:57:22.843Z,25.76
2022-08-01T13:59:49.714Z,25.77
2022-08-01T14:02:16.473Z,25.71
2022-08-01T14:04:43.306Z,25.68
2022-08-01T14:07:14.807Z,25.65
2022-08-01T14:10:04.452Z,25.74
2022-08-01T14:12:29.730Z,26.00
2022-08-01T14:14:57.367Z,26.44
2022-08-01T14:17:24.308Z,26.98
2022-08-01T14:19:50.986Z,27.21
2022-08-01T14:22:17.553Z,27.44
2022-08-01T14:24:44.189Z,27.98
2022-08-01T14:27:11.241Z,28.47
2022-08-01T14:30:02.279Z,29.02
2022-08-01T14:32:28.629Z,29.61
2022-08-01T14:34:57.032Z,29.95
2022-08-01T14:37:28.776Z,30.25
2022-08-01T14:40:01.878Z,30.48
2022-08-01T14:42:29.747Z,30.80
2022-08-01T14:44:56.784Z,31.00
2022-08-01T14:47:24.149Z,30.92
2022-08-01T14:49:51.645Z,31.01
2022-08-01T14:52:18.834Z,31.19
2022-08-01T14:54:45.576Z,31.12
2022-08-01T14:57:12.917Z,31.03
2022-08-01T14:59:39.530Z,30.96
2022-08-01T15:02:06.394Z,30.86
2022-08-01T15:04:33.481Z,30.27
2022-08-01T15:07:00.074Z,29.64
2022-08-01T15:09:26.710Z,29.35
2022-08-01T15:11:53.316Z,29.44
2022-08-01T15:14:38.805Z,29.14
2022-08-01T15:17:06.166Z,28.76
2022-08-01T15:19:32.764Z,28.58
2022-08-01T15:21:59.385Z,28.50
2022-08-01T15:24:28.616Z,28.44
2022-08-01T15:26:55.344Z,28.27
2022-08-01T15:29:21.932Z,28.20
2022-08-01T15:31:48.656Z,28.18
2022-08-01T15:34:15.236Z,28.68
2022-08-01T15:36:43.730Z,29.24
2022-08-01T15:39:11.201Z,29.44
2022-08-01T15:41:37.997Z,29.58
2022-08-01T15:44:04.792Z,29.59
2022-08-01T15:46:31.404Z,29.30
2022-08-01T15:48:58.102Z,28.89
2022-08-01T15:51:24.671Z,28.40
2022-08-01T15:53:51.303Z,27.83
2022-08-01T15:56:17.883Z,27.63
2022-08-01T15:58:44.638Z,27.36
2022-08-01T16:01:11.256Z,27.15
2022-08-01T16:03:37.886Z,26.86
2022-08-01T16:06:04.500Z,26.68
2022-08-01T16:08:31.368Z,26.55
2022-08-01T16:10:57.996Z,26.44
2022-08-01T16:13:24.615Z,26.28
2022-08-01T16:15:51.464Z,26.25
2022-08-01T16:18:18.281Z,26.17
2022-08-01T16:20:46.062Z,26.07
2022-08-01T16:23:14.060Z,25.93
2022-08-01T16:25:40.830Z,25.75
2022-08-01T16:28:09.188Z,25.75
2022-08-01T16:30:36.018Z,25.66
2022-08-01T16:33:07.235Z,25.54
2022-08-01T16:35:36.641Z,25.42
2022-08-01T16:38:07.107Z,25.26
2022-08-01T16:40:46.333Z,25.15
2022-08-01T16:43:15.330Z,24.91
2022-08-01T16:45:43.142Z,24.70
2022-08-01T16:48:12.297Z,24.32
2022-08-01T16:50:39.494Z,23.90
2022-08-01T16:53:06.168Z,23.58
2022-08-01T16:55:49.824Z,23.32
2022-08-01T16:58:27.696Z,23.04
2022-08-01T17:00:57.427Z,22.70
2022-08-01T17:03:46.735Z,22.51
2022-08-01T17:06:13.109Z,22.34
2022-08-01T17:08:46.964Z,22.22
2022-08-01T17:11:15.142Z,22.05
2022-08-01T17:13:42.860Z,21.68
2022-08-01T17:16:10.293Z,21.73
2022-08-01T17:18:36.957Z,21.57
2022-08-01T17:21:03.647Z,21.58
2022-08-01T17:23:31.831Z,21.54
2022-08-01T17:25:59.073Z,21.51
2022-08-01T17:28:26.230Z,21.43
2022-08-01T17:30:52.833Z,21.47
2022-08-01T17:33:19.478Z,21.39
2022-08-01T17:35:46.090Z,21.38
2022-08-01T17:38:12.731Z,21.41
2022-08-01T17:40:40.760Z,21.43
2022-08-01T17:43:08.205Z,21.44
2022-08-01T17:45:39.306Z,21.43
2022-08-01T17:48:19.020Z,21.46
2022-08-01T17:50:47.213Z,21.50
2022-08-01T17:53:15.581Z,21.48
2022-08-01T17:55:55.421Z,21.47
2022-08-01T17:58:33.126Z,21.48
2022-08-01T18:01:16.860Z,21.48
2022-08-01T18:03:44.317Z,21.45
2022-08-01T18:06:17.499Z,21.40
2022-08-01T18:08:47.053Z,21.34
2022-08-01T18:11:16.002Z,21.42
2022-08-01T18:13:42.899Z,21.49
2022-08-01T18:16:12.678Z,21.46
2022-08-01T18:18:40.778Z,21.49
2022-08-01T18:21:08.113Z,21.50
2022-08-01T18:23:35.288Z,21.53
2022-08-01T18:26:03.214Z,21.51
2022-08-01T18:28:36.653Z,21.57
2022-08-01T18:31:06.360Z,21.57
2022-08-01T18:33:34.528Z,21.55
2022-08-01T18:36:03.744Z,21.53
2022-08-01T18:38:32.920Z,21.50
2022-08-01T18:41:01.073Z,21.48
2022-08-01T18:43:28.095Z,21.48
2022-08-01T18:45:57.294Z,21.42
2022-08-01T18:48:24.677Z,21.37
2022-08-01T18:50:52.325Z,21.31
2022-08-01T18:53:20.729Z,21.25
2022-08-01T18:55:47.322Z,21.23
2022-08-01T18:58:13.885Z,21.26
2022-08-01T19:00:40.607Z,21.30
2022-08-01T19:03:07.906Z,21.31
2022-08-01T19:05:34.979Z,21.35
2022-08-01T19:08:04.749Z,21.39
2022-08-01T19:10:32.400Z,21.32
2022-08-01T19:13:00.189Z,21.31
2022-08-01T19:15:26.832Z,21.26
2022-08-01T19:17:53.417Z,21.20
2022-08-01T19:20:20.043Z,21.17
2022-08-01T19:22:46.661Z,21.10
2022-08-01T19:25:16.729Z,21.06
2022-08-01T19:27:48.259Z,21.05
2022-08-01T19:30:16.666Z,21.03
2022-08-01T19:32:46.383Z,21.05
2022-08-01T19:35:15.134Z,21.07
2022-08-01T19:37:47.368Z,21.08
2022-08-01T19:40:27.019Z,21.01
2022-08-01T19:42:56.654Z,20.96
2022-08-01T19:45:29.631Z,20.80
2022-08-01T19:47:57.801Z,20.69
2022-08-01T19:50:26.856Z,20.61
2022-08-01T19:52:55.625Z,20.56
2022-08-01T19:55:24.161Z,20.55
2022-08-01T19:58:24.123Z,20.56
2022-08-01T20:00:40.118Z,20.57
2022-08-01T20:03:07.651Z,20.65
2022-08-01T20:05:34.749Z,20.67
2022-08-01T20:08:01.950Z,20.70
2022-08-01T20:10:30.157Z,20.72
2022-08-01T20:12:57.646Z,20.65
2022-08-01T20:15:25.328Z,20.54
2022-08-01T20:17:51.915Z,20.43
2022-08-01T20:20:18.522Z,20.23
2022-08-01T20:22:48.779Z,20.00
2022-08-01T20:25:19.323Z,19.92
2022-08-01T20:27:47.473Z,19.86
2022-08-01T20:30:14.683Z,19.81
2022-08-01T20:32:42.024Z,19.79
2022-08-01T20:35:09.400Z,19.78
2022-08-01T20:38:05.454Z,19.78
2022-08-01T20:40:27.011Z,19.76
2022-08-01T20:42:53.780Z,19.77
2022-08-01T20:45:22.399Z,19.79
2022-08-01T20:47:49.901Z,19.78
2022-08-01T20:50:52.994Z,19.84
2022-08-01T20:53:23.624Z,19.94
2022-08-01T20:55:58.204Z,19.98
2022-08-01T20:58:37.427Z,20.06
2022-08-01T21:01:09.212Z,20.06
2022-08-01T21:03:52.088Z,20.09
2022-08-01T21:06:24.356Z,20.00
2022-08-01T21:08:55.894Z,19.80
2022-08-01T21:11:28.344Z,19.65
2022-08-01T21:13:58.848Z,19.54
2022-08-01T21:16:29.609Z,19.43
2022-08-01T21:19:18.535Z,19.37
2022-08-01T21:21:56.186Z,19.19
2022-08-01T21:24:28.266Z,18.97
2022-08-01T21:26:56.408Z,18.80
2022-08-01T21:29:24.910Z,18.66
2022-08-01T21:32:11.361Z,18.50
2022-08-01T21:34:39.494Z,18.42
2022-08-01T21:37:08.581Z,18.30
2022-08-01T21:39:36.808Z,18.17
2022-08-01T21:42:08.952Z,18.12
2022-08-01T21:44:38.896Z,18.10
2022-08-01T21:47:07.116Z,18.02
2022-08-01T21:49:39.427Z,18.07
2022-08-01T21:52:16.336Z,18.02
2022-08-01T21:55:05.469Z,18.07
2022-08-01T21:58:01.460Z,18.01
2022-08-01T22:00:28.223Z,17.99
2022-08-01T22:03:12.729Z,17.99
2022-08-01T22:05:50.888Z,17.99
2022-08-01T22:08:33.240Z,18.00
2022-08-01T22:11:05.057Z,18.04
2022-08-01T22:13:33.970Z,18.04
2022-08-01T22:16:03.283Z,18.01
2022-08-01T22:18:30.455Z,18.01
2022-08-01T22:20:57.108Z,18.09
2022-08-01T22:23:24.106Z,18.14
2022-08-01T22:25:55.314Z,18.16
2022-08-01T22:28:22.904Z,18.09
2022-08-01T22:30:51.468Z,18.06
2022-08-01T22:33:19.008Z,17.98
2022-08-01T22:35:48.370Z,17.95
2022-08-01T22:38:17.896Z,17.87
2022-08-01T22:41:03.873Z,17.84
2022-08-01T22:43:40.473Z,17.85
2022-08-01T22:46:13.667Z,17.86
2022-08-01T22:48:51.527Z,17.91
2022-08-01T22:51:32.804Z,18.00
2022-08-01T22:54:12.461Z,18.09
2022-08-01T22:56:47.421Z,18.19
2022-08-01T22:59:16.749Z,18.29
2022-08-01T23:01:47.709Z,18.37
2022-08-01T23:04:33.591Z,18.44
2022-08-01T23:07:05.471Z,18.42
2022-08-01T23:09:52.837Z,18.32
2022-08-01T23:12:25.463Z,18.33
2022-08-01T23:14:57.724Z,18.32
2022-08-01T23:17:28.816Z,18.34
2022-08-01T23:19:59.522Z,18.38
2022-08-01T23:22:30.159Z,18.35
2022-08-01T23:25:03.506Z,18.36
2022-08-01T23:27:55.798Z,18.35
2022-08-01T23:30:26.949Z,18.28
2022-08-01T23:32:54.380Z,18.22
2022-08-01T23:35:21.021Z,18.23
2022-08-01T23:37:50.927Z,18.24
2022-08-01T23:40:18.546Z,18.21
2022-08-01T23:42:45.259Z,18.11
2022-08-01T23:45:11.879Z,18.13
2022-08-01T23:47:38.611Z,18.13
2022-08-01T23:50:07.696Z,18.07
2022-08-01T23:52:34.784Z,18.09
2022-08-01T23:55:14.716Z,18.10
2022-08-01T23:57:42.344Z,18.06
